createdAt,value
2019-05-13T00:00:27.150Z,102189.67
2019-05-13T00:02:57.187Z,102194.44
2019-05-13T00:05:27.180Z,102190.96
2019-05-13T00:07:57.162Z,102197.89
2019-05-13T00:10:27.148Z,102207.44
2019-05-13T00:12:58.735Z,102209.61
2019-05-13T00:15:30.316Z,102211.34
2019-05-13T00:18:00.365Z,102211.77
2019-05-13T00:20:30.359Z,102205.69
2019-05-13T00:23:00.349Z,102213.50
2019-05-13T00:25:30.401Z,102213.91
2019-05-13T00:28:00.436Z,102216.10
2019-05-13T00:30:30.438Z,102221.70
2019-05-13T00:33:00.737Z,102217.82
2019-05-13T00:35:30.794Z,102226.03
2019-05-13T00:38:00.837Z,102228.61
2019-05-13T00:40:30.842Z,102227.30
2019-05-13T00:43:03.518Z,102228.59
2019-05-13T00:45:33.936Z,102226.02
2019-05-13T00:48:04.872Z,102225.11
2019-05-13T00:50:35.091Z,102224.23
2019-05-13T00:53:05.160Z,102226.83
2019-05-13T00:55:35.194Z,102231.20
2019-05-13T00:58:05.450Z,102235.52
2019-05-13T01:00:35.459Z,102238.09
2019-05-13T01:03:05.545Z,102238.94
2019-05-13T01:05:35.569Z,102244.14
2019-05-13T01:08:05.553Z,102256.25
2019-05-13T01:10:35.586Z,102258.84
2019-05-13T01:13:05.594Z,102264.47
2019-05-13T01:15:35.651Z,102254.47
2019-05-13T01:18:05.732Z,102266.16
2019-05-13T01:20:35.722Z,102267.02
2019-05-13T01:23:05.762Z,102272.23
2019-05-13T01:25:35.741Z,102272.18
2019-05-13T01:28:05.733Z,102276.94
2019-05-13T01:30:35.807Z,102281.68
2019-05-13T01:33:05.794Z,102275.67
2019-05-13T01:35:35.862Z,102280.80
2019-05-13T01:38:05.855Z,102282.57
2019-05-13T01:40:35.983Z,102280.32
2019-05-13T01:43:05.974Z,102284.16
2019-05-13T01:45:36.005Z,102286.36
2019-05-13T01:48:07.802Z,102282.44
2019-05-13T01:50:37.701Z,102291.93
2019-05-13T01:53:07.721Z,102296.66
2019-05-13T01:55:37.765Z,102294.06
2019-05-13T01:58:07.744Z,102295.80
2019-05-13T02:00:38.830Z,102303.15
2019-05-13T02:03:08.825Z,102305.80
2019-05-13T02:05:38.877Z,102305.78
2019-05-13T02:08:08.879Z,102298.80
2019-05-13T02:10:57.953Z,102308.75
2019-05-13T02:13:27.948Z,102306.56
2019-05-13T02:15:58.591Z,102303.47
2019-05-13T02:18:28.564Z,102303.91
2019-05-13T02:20:58.553Z,102304.34
2019-05-13T02:23:28.579Z,102307.27
2019-05-13T02:25:59.668Z,102305.66
2019-05-13T02:28:29.641Z,102311.72
2019-05-13T02:30:59.636Z,102313.85
2019-05-13T02:33:33.529Z,102319.52
2019-05-13T02:36:02.992Z,102312.50
2019-05-13T02:38:35.527Z,102313.89
2019-05-13T02:41:04.882Z,102314.72
2019-05-13T02:43:34.960Z,102315.95
2019-05-13T02:46:05.032Z,102318.58
2019-05-13T02:48:35.014Z,102322.94
2019-05-13T02:51:05.096Z,102327.27
2019-05-13T02:53:35.070Z,102326.73
2019-05-13T02:56:05.281Z,102323.34
2019-05-13T02:58:35.265Z,102323.44
2019-05-13T03:01:05.506Z,102327.70
2019-05-13T03:03:35.521Z,102326.03
2019-05-13T03:06:05.761Z,102321.30
2019-05-13T03:08:46.237Z,102329.95
2019-05-13T03:11:12.350Z,102322.51
2019-05-13T03:13:42.588Z,102329.98
2019-05-13T03:16:22.908Z,102328.28
2019-05-13T03:18:52.482Z,102333.97
2019-05-13T03:21:23.377Z,102338.33
2019-05-13T03:23:53.646Z,102337.92
2019-05-13T03:26:24.759Z,102342.25
2019-05-13T03:28:54.797Z,102343.48
2019-05-13T03:31:26.369Z,102349.61
2019-05-13T03:33:56.901Z,102352.61
2019-05-13T03:36:27.131Z,102354.91
2019-05-13T03:39:06.008Z,102358.42
2019-05-13T03:41:32.954Z,102351.54
2019-05-13T03:44:06.231Z,102358.03
2019-05-13T03:46:42.560Z,102359.37
2019-05-13T03:49:13.667Z,102345.52
2019-05-13T03:51:43.870Z,102357.32
2019-05-13T03:54:15.125Z,102359.92
2019-05-13T03:56:45.340Z,102356.08
2019-05-13T03:59:15.331Z,102356.08
2019-05-13T04:01:45.591Z,102359.11
2019-05-13T04:04:15.645Z,102360.43
2019-05-13T04:06:45.828Z,102357.80
2019-05-13T04:09:26.442Z,102368.62
2019-05-13T04:11:47.573Z,102363.06
2019-05-13T04:14:18.123Z,102370.49
2019-05-13T04:16:52.867Z,102364.44
2019-05-13T04:19:23.165Z,102362.29
2019-05-13T04:21:53.649Z,102359.27
2019-05-13T04:24:23.609Z,102366.19
2019-05-13T04:26:53.708Z,102364.91
2019-05-13T04:29:23.786Z,102361.43
2019-05-13T04:31:53.989Z,102361.88
2019-05-13T04:34:25.281Z,102364.91
2019-05-13T04:36:55.450Z,102366.66
2019-05-13T04:39:40.484Z,102364.47
2019-05-13T04:41:57.621Z,102368.39
2019-05-13T04:44:27.795Z,102377.49
2019-05-13T04:46:58.843Z,102369.25
2019-05-13T04:49:32.314Z,102379.65
2019-05-13T04:52:03.325Z,102381.81
2019-05-13T04:54:33.260Z,102381.80
2019-05-13T04:57:03.698Z,102383.98
2019-05-13T04:59:35.857Z,102380.92
2019-05-13T05:02:22.307Z,102386.17
2019-05-13T05:05:17.470Z,102392.64
2019-05-13T05:08:12.068Z,102395.67
2019-05-13T05:10:50.302Z,102396.13
2019-05-13T05:13:32.353Z,102395.70
2019-05-13T05:16:12.962Z,102403.97
2019-05-13T05:19:23.780Z,102403.55
2019-05-13T05:21:58.747Z,102402.23
2019-05-13T05:24:51.889Z,102412.66
2019-05-13T05:27:46.756Z,102408.76
2019-05-13T05:30:43.982Z,102411.83
2019-05-13T05:33:29.158Z,102412.70
2019-05-13T05:36:24.875Z,102418.78
2019-05-13T05:39:12.151Z,102415.75
2019-05-13T05:41:43.504Z,102415.72
2019-05-13T05:44:13.942Z,102415.70
2019-05-13T05:46:44.902Z,102415.25
2019-05-13T05:49:17.213Z,102422.17
2019-05-13T05:51:51.292Z,102418.70
2019-05-13T05:54:23.166Z,102428.22
2019-05-13T05:56:55.003Z,102423.83
2019-05-13T05:59:27.039Z,102428.54
2019-05-13T06:01:58.392Z,102424.55
2019-05-13T06:04:32.291Z,102409.80
2019-05-13T06:07:03.294Z,102425.23
2019-05-13T06:09:33.606Z,102418.22
2019-05-13T06:12:03.641Z,102429.36
2019-05-13T06:14:33.842Z,102428.30
2019-05-13T06:17:03.891Z,102438.55
2019-05-13T06:19:35.076Z,102437.05
2019-05-13T06:22:05.390Z,102435.74
2019-05-13T06:24:35.494Z,102435.74
2019-05-13T06:27:05.473Z,102438.50
2019-05-13T06:29:35.534Z,102435.74
2019-05-13T06:32:17.602Z,102427.88
2019-05-13T06:34:38.226Z,102431.55
2019-05-13T06:37:08.548Z,102438.84
2019-05-13T06:39:38.716Z,102444.50
2019-05-13T06:42:08.709Z,102445.69
2019-05-13T06:44:38.702Z,102449.00
2019-05-13T06:47:11.325Z,102454.95
2019-05-13T06:49:42.708Z,102446.67
2019-05-13T06:52:12.180Z,102447.48
2019-05-13T06:54:42.205Z,102449.67
2019-05-13T06:57:13.408Z,102454.42
2019-05-13T06:59:43.805Z,102459.17
2019-05-13T07:02:13.913Z,102457.67
2019-05-13T07:04:43.944Z,102460.86
2019-05-13T07:07:17.121Z,102469.86
2019-05-13T07:09:45.681Z,102466.98
2019-05-13T07:12:15.673Z,102466.29
2019-05-13T07:14:45.844Z,102466.59
2019-05-13T07:17:15.834Z,102467.20
2019-05-13T07:19:45.876Z,102470.90
2019-05-13T07:22:15.864Z,102473.06
2019-05-13T07:24:45.863Z,102472.17
2019-05-13T07:27:15.867Z,102477.62
2019-05-13T07:29:45.861Z,102480.13
2019-05-13T07:32:15.838Z,102480.66
2019-05-13T07:34:45.936Z,102492.16
2019-05-13T07:37:16.003Z,102484.38
2019-05-13T07:39:46.828Z,102490.22
2019-05-13T07:42:16.832Z,102493.50
2019-05-13T07:44:46.847Z,102489.21
2019-05-13T07:47:16.884Z,102495.53
2019-05-13T07:49:46.870Z,102495.33
2019-05-13T07:52:16.913Z,102489.36
2019-05-13T07:54:46.895Z,102490.67
2019-05-13T07:57:16.906Z,102496.51
2019-05-13T07:59:47.021Z,102491.59
2019-05-13T08:02:17.064Z,102499.89
2019-05-13T08:04:49.355Z,102497.94
2019-05-13T08:07:18.715Z,102498.08
2019-05-13T08:09:48.699Z,102502.66
2019-05-13T08:12:18.710Z,102499.61
2019-05-13T08:14:48.751Z,102502.11
2019-05-13T08:17:18.747Z,102499.82
2019-05-13T08:19:48.749Z,102497.91
2019-05-13T08:22:21.837Z,102504.58
2019-05-13T08:24:52.025Z,102509.44
2019-05-13T08:27:30.394Z,102507.67
2019-05-13T08:29:54.144Z,102500.95
2019-05-13T08:32:24.135Z,102497.36
2019-05-13T08:35:01.828Z,102485.41
2019-05-13T08:37:25.899Z,102486.45
2019-05-13T08:39:55.932Z,102488.93
2019-05-13T08:42:25.923Z,102491.43
2019-05-13T08:44:56.057Z,102492.88
2019-05-13T08:47:26.297Z,102494.24
2019-05-13T08:49:56.439Z,102497.46
2019-05-13T08:52:26.484Z,102504.05
2019-05-13T08:54:56.548Z,102495.97
2019-05-13T08:57:26.536Z,102494.84
2019-05-13T08:59:56.537Z,102490.09
2019-05-13T09:02:26.577Z,102501.44
2019-05-13T09:04:57.667Z,102503.84
2019-05-13T09:07:27.669Z,102499.77
2019-05-13T09:09:57.738Z,102496.86
2019-05-13T09:12:32.583Z,102489.98
2019-05-13T09:14:59.563Z,102495.62
2019-05-13T09:17:31.769Z,102503.31
2019-05-13T09:20:02.789Z,102501.80
2019-05-13T09:22:33.121Z,102499.06
2019-05-13T09:25:05.405Z,102508.30
2019-05-13T09:27:35.327Z,102502.36
2019-05-13T09:30:07.007Z,102502.72
2019-05-13T09:32:37.004Z,102498.86
2019-05-13T09:35:07.503Z,102495.87
2019-05-13T09:37:39.390Z,102499.44
2019-05-13T09:40:11.489Z,102488.11
2019-05-13T09:42:49.160Z,102494.67
2019-05-13T09:45:13.530Z,102494.66
2019-05-13T09:47:43.544Z,102486.57
2019-05-13T09:50:28.701Z,102491.70
2019-05-13T09:52:45.541Z,102488.84
2019-05-13T09:55:26.361Z,102502.05
2019-05-13T09:58:06.790Z,102503.34
2019-05-13T10:00:37.020Z,102507.49
2019-05-13T10:03:07.103Z,102509.25
2019-05-13T10:05:37.149Z,102504.30
2019-05-13T10:08:07.151Z,102516.96
2019-05-13T10:10:37.196Z,102519.47
2019-05-13T10:13:12.300Z,102514.20
2019-05-13T10:15:41.834Z,102516.16
2019-05-13T10:18:12.540Z,102511.42
2019-05-13T10:20:58.928Z,102515.27
2019-05-13T10:23:32.695Z,102503.33
2019-05-13T10:26:04.774Z,102507.81
2019-05-13T10:28:35.408Z,102497.53
2019-05-13T10:31:05.906Z,102498.98
2019-05-13T10:33:36.077Z,102498.13
2019-05-13T10:36:06.211Z,102503.98
2019-05-13T10:38:36.367Z,102499.72
2019-05-13T10:41:06.409Z,102511.66
2019-05-13T10:43:40.254Z,102513.81
2019-05-13T10:46:08.139Z,102508.52
2019-05-13T10:48:38.130Z,102520.67
2019-05-13T10:51:08.206Z,102512.61
2019-05-13T10:53:38.260Z,102509.54
2019-05-13T10:56:08.331Z,102509.15
2019-05-13T10:58:38.341Z,102514.16
2019-05-13T11:01:08.424Z,102521.08
2019-05-13T11:03:38.411Z,102509.38
2019-05-13T11:06:08.498Z,102510.84
2019-05-13T11:08:38.555Z,102512.83
2019-05-13T11:11:08.614Z,102505.59
2019-05-13T11:13:52.321Z,102507.95
2019-05-13T11:16:12.192Z,102510.52
2019-05-13T11:18:42.447Z,102508.84
2019-05-13T11:21:13.164Z,102512.38
2019-05-13T11:23:43.227Z,102495.61
2019-05-13T11:26:14.357Z,102504.54
2019-05-13T11:28:44.346Z,102501.81
2019-05-13T11:31:14.495Z,102502.94
2019-05-13T11:33:44.558Z,102503.39
2019-05-13T11:36:18.972Z,102506.64
2019-05-13T11:38:46.398Z,102505.02
2019-05-13T11:41:16.560Z,102498.81
2019-05-13T11:43:46.562Z,102511.00
2019-05-13T11:46:16.687Z,102505.43
2019-05-13T11:48:46.756Z,102512.16
2019-05-13T11:51:16.765Z,102494.30
2019-05-13T11:53:46.780Z,102500.58
2019-05-13T11:56:16.785Z,102500.77
2019-05-13T11:58:46.818Z,102497.98
2019-05-13T12:01:17.155Z,102500.58
2019-05-13T12:03:47.181Z,102502.44
2019-05-13T12:06:17.191Z,102504.28
2019-05-13T12:08:50.806Z,102496.36
2019-05-13T12:11:21.673Z,102496.64
2019-05-13T12:13:52.752Z,102497.06
2019-05-13T12:16:22.986Z,102495.31
2019-05-13T12:18:53.155Z,102497.38
2019-05-13T12:21:23.278Z,102496.79
2019-05-13T12:23:54.294Z,102503.48
2019-05-13T12:26:24.633Z,102499.12
2019-05-13T12:28:54.634Z,102496.58
2019-05-13T12:31:24.639Z,102489.08
2019-05-13T12:33:54.686Z,102499.37
2019-05-13T12:36:25.732Z,102491.16
2019-05-13T12:38:55.825Z,102494.45
2019-05-13T12:41:25.880Z,102497.11
2019-05-13T12:43:55.866Z,102500.58
2019-05-13T12:46:25.893Z,102500.39
2019-05-13T12:48:55.977Z,102498.91
2019-05-13T12:51:25.963Z,102498.62
2019-05-13T12:53:55.977Z,102498.11
2019-05-13T12:56:26.041Z,102490.38
2019-05-13T12:58:56.057Z,102498.29
2019-05-13T13:01:26.187Z,102498.86
2019-05-13T13:03:56.242Z,102497.27
2019-05-13T13:06:33.207Z,102497.28
2019-05-13T13:08:58.301Z,102494.45
2019-05-13T13:11:32.296Z,102498.33
2019-05-13T13:14:05.731Z,102498.55
2019-05-13T13:16:35.595Z,102491.31
2019-05-13T13:19:06.415Z,102490.22
2019-05-13T13:21:37.886Z,102492.45
2019-05-13T13:24:08.045Z,102491.54
2019-05-13T13:26:42.437Z,102488.43
2019-05-13T13:29:10.861Z,102496.33
2019-05-13T13:31:43.271Z,102493.00
2019-05-13T13:34:18.026Z,102488.45
2019-05-13T13:36:46.345Z,102490.23
2019-05-13T13:39:16.707Z,102486.63
2019-05-13T13:41:46.704Z,102489.21
2019-05-13T13:44:16.996Z,102484.43
2019-05-13T13:46:49.883Z,102489.83
2019-05-13T13:49:23.045Z,102484.00
2019-05-13T13:51:51.799Z,102478.13
2019-05-13T13:54:22.537Z,102469.92
2019-05-13T13:56:55.981Z,102465.78
2019-05-13T13:59:25.193Z,102473.16
2019-05-13T14:01:56.359Z,102472.11
2019-05-13T14:04:26.435Z,102470.57
2019-05-13T14:09:32.627Z,102476.66
2019-05-13T14:12:02.650Z,102477.22
2019-05-13T14:14:32.639Z,102473.83
2019-05-13T14:17:02.641Z,102476.80
2019-05-13T14:19:32.712Z,102479.37
2019-05-13T14:22:02.760Z,102482.20
2019-05-13T14:24:33.200Z,102476.23
2019-05-13T14:27:03.348Z,102477.04
2019-05-13T14:29:41.021Z,102471.23
2019-05-13T14:32:11.400Z,102470.89
2019-05-13T14:34:47.169Z,102474.41
2019-05-13T14:37:17.188Z,102464.80
2019-05-13T14:39:47.273Z,102469.90
2019-05-13T14:42:17.412Z,102462.33
2019-05-13T14:44:47.404Z,102457.87
2019-05-13T14:47:17.482Z,102453.18
2019-05-13T14:49:47.468Z,102455.78
2019-05-13T14:52:17.506Z,102469.77
2019-05-13T14:54:47.577Z,102468.28
2019-05-13T14:57:17.648Z,102468.55
2019-05-13T14:59:47.710Z,102463.48
2019-05-13T15:02:17.704Z,102466.44
2019-05-13T15:04:47.721Z,102468.14
2019-05-13T15:07:17.845Z,102464.23
2019-05-13T15:09:47.845Z,102463.05
2019-05-13T15:12:17.842Z,102468.17
2019-05-13T15:14:47.837Z,102463.39
2019-05-13T15:17:17.906Z,102454.36
2019-05-13T15:19:48.199Z,102456.13
2019-05-13T15:22:18.351Z,102455.19
2019-05-13T15:24:48.341Z,102462.09
2019-05-13T15:27:18.407Z,102455.37
2019-05-13T15:29:48.406Z,102459.55
2019-05-13T15:32:18.403Z,102455.97
2019-05-13T15:34:48.579Z,102455.94
2019-05-13T15:37:18.696Z,102451.48
2019-05-13T15:39:48.745Z,102449.61
2019-05-13T15:42:20.816Z,102446.86
2019-05-13T15:44:52.550Z,102443.51
2019-05-13T15:47:24.149Z,102444.92
2019-05-13T15:49:54.061Z,102452.66
2019-05-13T15:52:24.066Z,102460.58
2019-05-13T15:54:54.115Z,102463.61
2019-05-13T15:57:24.121Z,102453.36
2019-05-13T15:59:54.124Z,102454.19
2019-05-13T16:02:24.150Z,102463.75
2019-05-13T16:05:01.004Z,102456.89
2019-05-13T16:07:25.912Z,102464.92
2019-05-13T16:09:55.951Z,102464.37
2019-05-13T16:12:25.952Z,102461.77
2019-05-13T16:14:56.162Z,102463.33
2019-05-13T16:17:40.925Z,102459.34
2019-05-13T16:19:57.963Z,102459.63
2019-05-13T16:22:27.949Z,102463.06
2019-05-13T16:24:57.986Z,102468.82
2019-05-13T16:27:28.252Z,102469.42
2019-05-13T16:29:58.262Z,102478.98
2019-05-13T16:32:28.275Z,102473.38
2019-05-13T16:34:58.300Z,102479.38
2019-05-13T16:37:28.319Z,102482.30
2019-05-13T16:39:58.317Z,102476.67
2019-05-13T16:42:28.506Z,102477.69
2019-05-13T16:44:58.617Z,102479.19
2019-05-13T16:47:28.628Z,102482.36
2019-05-13T16:49:58.712Z,102480.92
2019-05-13T16:52:28.714Z,102477.42
2019-05-13T16:54:58.746Z,102471.00
2019-05-13T16:57:28.764Z,102478.07
2019-05-13T16:59:58.782Z,102479.19
2019-05-13T17:02:28.763Z,102484.15
2019-05-13T17:04:58.770Z,102471.61
2019-05-13T17:07:28.844Z,102481.24
2019-05-13T17:10:01.111Z,102477.02
2019-05-13T17:12:31.710Z,102477.03
2019-05-13T17:15:01.852Z,102478.47
2019-05-13T17:17:31.980Z,102483.73
2019-05-13T17:20:02.527Z,102488.57
2019-05-13T17:22:32.704Z,102490.83
2019-05-13T17:25:02.757Z,102489.69
2019-05-13T17:27:32.766Z,102499.23
2019-05-13T17:30:02.764Z,102497.66
2019-05-13T17:32:32.850Z,102496.89
2019-05-13T17:35:03.005Z,102494.16
2019-05-13T17:37:33.168Z,102498.26
2019-05-13T17:40:04.128Z,102496.53
2019-05-13T17:42:34.199Z,102500.50
2019-05-13T17:45:05.896Z,102500.84
2019-05-13T17:47:35.894Z,102498.28
2019-05-13T17:50:08.590Z,102495.83
2019-05-13T17:52:38.587Z,102498.05
2019-05-13T17:55:08.978Z,102492.55
2019-05-13T17:57:41.252Z,102493.27
2019-05-13T18:00:12.068Z,102493.08
2019-05-13T18:02:43.813Z,102496.11
2019-05-13T18:05:13.953Z,102495.30
2019-05-13T18:07:44.038Z,102492.72
2019-05-13T18:10:14.659Z,102500.04
2019-05-13T18:12:44.779Z,102501.15
2019-05-13T18:15:14.972Z,102497.86
2019-05-13T18:17:44.962Z,102502.63
2019-05-13T18:20:15.246Z,102507.02
2019-05-13T18:22:45.249Z,102503.51
2019-05-13T18:25:15.589Z,102508.14
2019-05-13T18:27:45.638Z,102508.58
2019-05-13T18:30:15.767Z,102508.74
2019-05-13T18:32:45.821Z,102515.21
2019-05-13T18:35:15.963Z,102511.70
2019-05-13T18:37:45.969Z,102515.59
2019-05-13T18:40:16.859Z,102520.69
2019-05-13T18:42:46.860Z,102520.17
2019-05-13T18:45:17.076Z,102516.83
2019-05-13T18:47:47.071Z,102521.48
2019-05-13T18:50:17.248Z,102523.41
2019-05-13T18:52:47.251Z,102527.86
2019-05-13T18:55:17.319Z,102532.88
2019-05-13T18:57:47.319Z,102532.09
2019-05-13T19:00:17.818Z,102527.86
2019-05-13T19:02:47.794Z,102535.13
2019-05-13T19:05:17.897Z,102526.88
2019-05-13T19:07:47.904Z,102524.13
2019-05-13T19:10:18.044Z,102524.47
2019-05-13T19:12:48.038Z,102530.91
2019-05-13T19:15:18.260Z,102531.39
2019-05-13T19:17:48.273Z,102534.10
2019-05-13T19:20:18.616Z,102527.61
2019-05-13T19:22:48.615Z,102530.56
2019-05-13T19:25:18.781Z,102534.51
2019-05-13T19:27:48.764Z,102528.88
2019-05-13T19:30:21.283Z,102531.30
2019-05-13T19:32:52.311Z,102531.47
2019-05-13T19:35:22.381Z,102533.02
2019-05-13T19:37:52.428Z,102539.99
2019-05-13T19:40:22.462Z,102542.70
2019-05-13T19:42:52.529Z,102539.30
2019-05-13T19:45:22.631Z,102545.53
2019-05-13T19:47:52.704Z,102540.73
2019-05-13T19:50:22.875Z,102545.47
2019-05-13T19:52:52.935Z,102553.16
2019-05-13T19:55:23.035Z,102552.09
2019-05-13T19:57:53.034Z,102556.98
2019-05-13T20:00:23.187Z,102560.25
2019-05-13T20:02:53.178Z,102562.10
2019-05-13T20:05:23.308Z,102556.09
2019-05-13T20:07:53.638Z,102560.83
2019-05-13T20:10:23.687Z,102558.29
2019-05-13T20:12:53.688Z,102560.39
2019-05-13T20:15:23.713Z,102564.19
2019-05-13T20:17:53.699Z,102571.00
2019-05-13T20:20:23.786Z,102577.87
2019-05-13T20:22:53.807Z,102578.05
2019-05-13T20:25:23.815Z,102578.59
2019-05-13T20:27:53.862Z,102587.11
2019-05-13T21:01:07.303Z,102602.37
2019-05-13T21:03:37.386Z,102603.08
2019-05-13T21:06:07.461Z,102608.25
2019-05-13T21:08:37.533Z,102612.72
2019-05-13T21:11:07.695Z,102606.08
2019-05-13T21:13:37.667Z,102609.67
2019-05-13T21:16:07.666Z,102616.73
2019-05-13T21:18:37.693Z,102619.93
2019-05-13T21:21:07.743Z,102622.04
2019-05-13T21:23:37.713Z,102622.47
2019-05-13T21:26:07.780Z,102619.94
2019-05-13T21:28:41.708Z,102623.85
2019-05-13T21:31:11.472Z,102625.26
2019-05-13T21:33:41.567Z,102625.23
2019-05-13T21:36:12.368Z,102620.16
2019-05-13T21:38:42.411Z,102614.93
2019-05-13T21:41:12.397Z,102620.50
2019-05-13T21:43:42.399Z,102619.32
2019-05-13T21:46:12.390Z,102622.31
2019-05-13T21:48:42.369Z,102621.48
2019-05-13T21:51:13.522Z,102621.04
2019-05-13T21:53:43.653Z,102617.16
2019-05-13T21:56:13.652Z,102627.66
2019-05-13T21:58:43.702Z,102621.64
2019-05-13T22:01:13.996Z,102623.77
2019-05-13T22:03:44.059Z,102624.69
2019-05-13T22:06:14.233Z,102620.33
2019-05-13T22:08:44.281Z,102621.23
2019-05-13T22:11:14.391Z,102622.94
2019-05-13T22:13:44.388Z,102621.67
2019-05-13T22:16:14.483Z,102625.63
2019-05-13T22:18:44.465Z,102623.02
2019-05-13T22:21:14.522Z,102617.37
2019-05-13T22:23:44.558Z,102616.03
2019-05-13T22:26:14.567Z,102615.63
2019-05-13T22:28:44.552Z,102621.73
2019-05-13T22:31:14.623Z,102620.42
2019-05-13T22:33:45.306Z,102618.25
2019-05-13T22:36:15.381Z,102619.55
2019-05-13T22:38:45.419Z,102620.86
2019-05-13T22:41:15.420Z,102626.52
2019-05-13T22:43:55.685Z,102628.24
2019-05-13T22:46:17.129Z,102634.34
2019-05-13T22:48:47.124Z,102629.98
2019-05-13T22:51:17.090Z,102633.03
2019-05-13T22:53:47.223Z,102636.53
2019-05-13T22:56:17.217Z,102635.20
2019-05-13T22:58:47.233Z,102637.39
2019-05-13T23:01:17.220Z,102645.20
2019-05-13T23:03:47.278Z,102641.70
2019-05-13T23:06:17.270Z,102641.27
2019-05-13T23:08:47.273Z,102645.62
2019-05-13T23:11:17.284Z,102642.13
2019-05-13T23:13:47.266Z,102646.02
2019-05-13T23:16:17.300Z,102638.20
2019-05-13T23:18:47.297Z,102634.72
2019-05-13T23:21:17.320Z,102637.71
2019-05-13T23:23:47.292Z,102638.14
2019-05-13T23:26:17.323Z,102637.64
2019-05-13T23:28:47.308Z,102634.14
2019-05-13T23:31:17.302Z,102624.18
2019-05-13T23:33:47.324Z,102634.19
2019-05-13T23:36:17.333Z,102633.75
2019-05-13T23:38:47.447Z,102632.02
2019-05-13T23:41:17.510Z,102635.48
2019-05-13T23:43:47.493Z,102633.70
2019-05-13T23:46:17.604Z,102631.48
2019-05-13T23:48:47.585Z,102632.64
2019-05-13T23:51:17.618Z,102636.11
2019-05-13T23:53:47.681Z,102637.44
2019-05-13T23:56:17.696Z,102637.98
2019-05-13T23:58:47.692Z,102639.76
